Timeline UpdatesTrip UpdatesNews PostsPvt PostsTravel TipsAdmin PostsConv PostsFollowed PostsChat RequestsBlog PostsPNR Posts

Disclaimer
Search
 
 
Sun Apr 20, 2014 09:12:21 ISTHomeTrainsΣChainsAtlasPNRForumGalleryNewsFAQTripsMembersLoginFeedback
No Recent News for this Train
Other Trains in the News **new
Latest...
Augmented with a 3AC and General coach from 2.2.2014.
Thu Feb 06, 2014 (07:48AM)
⇐ Return Journey: Train# 19166

19165/Sabarmati Express

Feb 01 2014 (10:56AM)
Change Departure Station:
Change Arrival Station:
Post a Train Travel TipPost a Train Travel Tip **new
Post a Comment/Question/Picture/VideoPost a Comment/Question/Picture/Video
Pantry/Catering
???
Loco/Rake Reversals
BRC/Vadodara Junction (7); SHG/Shahganj Junction (4); BINA/Bina Junction (5); SPJ/Samastipur Junction (9);
RSA - Rake Sharing
19165/19166/19167/19168 has RSA
Rake/Coach Composition
Loco <-SLD-GN-GN-A1-B1-S1 - - - S12-GN-GN-SLR (ADI-BRC, BINA-SHG & SPJ-DBG)= 20 Coach Train.
Loco
ADI-RTM :BRC WAP4E RTM-DBG :RTM WDM3A
News    PNR    Forum    Time-Table    Availability    Fare Chart    Map    Arr/Dep History    Trips    Gallery    ΣChains    X/O    Timeline    
Travel Time: 1h 55m    4 halts    Distance: 100 km    Avg Speed: 52 km/hr
Type: Mail/Express
Zone: WR/Western
Departs @ 20:50 (Avg 1m late)
Platform# 2
S  W F 
Ahmedabad Junction/ADI 
Arrives @ 22:45 (Avg 15m late)
Platform# 7
S  W F 
Vadodara Junction/BRC 

4 halts. 21 intermediate Stations between Ahmedabad Junction and Vadodara Junction

Show ALL intermediate Stations  Show Old Time-Table

#CodeStation NameX/OArrivesAvgDepartsAvgHaltPFDay#KmSpeedElevZoneAddress
1ADI»Ahmedabad Junction (12)»  -20:50+1210.02751mWRAhmedabad, Gujarat
2MANManinagar (2)X  20:57+1120:59+112m213.26250mWRAhmadabad, Gujarat
3MHDMahemdavad Kheda Road (4)X  21:23+1521:25+142m2128.07537mWRMahemdavad, Gujarat
4NDNadiad Junction (4)  21:39+1521:41+152m1145.66237mWRNadiad, Gujarat
5ANNDAnand Junction (6)X  21:59+1522:01+152m1164.14944mWRAnand, Gujarat
6BRC•Vadodara Junction (7)•XO22:45+1523:10+1525m7199.85336mWRVadodara, Gujarat
7GDAGodhra Junction (3)X  00:33+500:35+62m--2173.780122mWRGodhra, Gujarat
8DHDDahod (3)X  01:30+3101:32+312m--2246.890313mWRDahod, Gujarat
9MGNMeghnagar (3)X  01:54+3701:56+372m--2279.954317mWRJhabua, Madhya Pradesh
10RTMRatlam Junction (7)XO  03:25+2203:40+2915m52360.275495mWRRatlam, Madhya Pradesh
11KUHKhachrod (2)  04:02+3504:04+352m--2387.932497mWRUjjain, Madhya Pradesh
12NADNagda Junction (4)  04:30+2404:35+285m--2401.761468mWRNagda, Madhya Pradesh
13UJNUjjain Junction (8)X  05:30+1505:50+1020m--2457.376492mWRUjjain, Madhya Pradesh
14TANTarana Road  06:15+706:17+62m--2488.816498mWRMaksi, Madhya Pradesh
15MKCMaksi Junction (3)  06:53+006:55+12m--2498.369510mWRMakshi, Madhya Pradesh
16SFYShajapur  07:19+1407:21+212m--2526.155450mWCRShajapur, Madhya Pradesh
17SFWSarangpur  07:50+1907:52+192m--2552.763422mWCRSarangpur, Madhya Pradesh
18PFRPachor Road  08:23+1908:25+202m--2585.463419mWCRPachore, Madhya Pradesh
19BRRGBiyavra Rajgarh  08:53+2208:55+222m--2614.642423mWCRBiaora, Madhya Pradesh
20CBKChachaura Binaganj (1)  09:38+2009:40+312m12645.049435mWCRGuna, Madhya Pradesh
21KHRJKumbhraj (1)  10:08+2410:10+292m12667.7143401mWCRManpura, Madhya Pradesh
22VJPVijay PurX  10:18+4510:20+462m--2686.821420mWCRVijaipur, Madhya Pradesh
23RTARuthiyai Junction (2)  10:35+4210:40+425m--2691.920414mWCRRuthiyai, Madhya Pradesh
24GUNAGuna Junction (3)X  11:40+1511:55+1315m22712.262477mWCRJn Point Indore/Gwalior/Bina/Kota, Madhya Pradesh
25ASKNAshok Nagar (2)  12:38+1912:40+202m--2756.472502mWCRAshoknagar, Madhya Pradesh
26PIAPipraigaon (3)X  13:02+2413:04+242m12782.846451mWCRAshoknagar, Madhya Pradesh
27MNVMungaoli (2)  13:29+2013:31+202m--2802.036403mWCRAshoknagar, Madhya Pradesh
28BINABina Junction (5)XO14:20+1714:40+1720m42831.156414mWCRJn Pt - KATNI/GUNA/ BPL/JHS, Madhya Pradesh
29DUADhaura (3)X  15:17+2515:19+262m--2865.763407mNCRDhaura Tanda, Madhya Pradesh
30JLNJakhalaun (3)  15:30+2415:32+242m--2877.277394mNCRLalitpur(05176-272220), Uttar Pradesh
31LARLalitpur (3)X  15:45+3115:47+322m32894.092373mNCRLalitpur, Uttar Pradesh
32TBTTalbahat (4)X  16:13+3716:15+372m32933.971314mNCRKhaniyadhana Station Rd, Madhya Pradesh
33BABBabina (3)  16:36+4216:38+452m22958.841285mNCRBabina, Uttar Pradesh
34JHSJhansi Junction (7)  17:15+4017:30+4515m--2984.379259mNCRJhansi, Uttar Pradesh
35CGNChirgaon  17:54+5717:56+572m--21016.174192mNCRChirgaon, Uttar Pradesh
36MOTHMoth  18:15+5918:17+592m--21039.682175mNCRJhansi, Uttar Pradesh
37AITAit Junction (2)  18:42+1:0318:44+1:032m121073.759154mNCROrai(05162-252206), Uttar Pradesh
38ORAIOrai (3)X  19:09+1:0719:11+1:162m321098.373139mNCROrai(05162-252206), Uttar Pradesh
39KPIKalpiX  19:38+1:2419:40+1:252m--21131.048114mNCRKalpi Orai(05162-252206), Uttar Pradesh
40CNHChaunrah  19:48-19:50-2m--21137.465134mNCRNational Highway 25, Uttar Pradesh
41PHNPokhrayan (2)XO  19:58+1:1720:00+1:192m121146.118133mNCRPukhrayan, Uttar Pradesh
42BZMBhimsen (1)  22:28+722:30+82m121190.521136mNCRKanpur, Uttar Pradesh
43CNBKanpur Central (10)X  23:10+823:20+810m--21204.650128mNCRKanpur, Uttar Pradesh
44ONUnnao Junction (5)X  23:41+2323:43+232m--21222.049129mNRUnnao, Uttar Pradesh
45LKOLucknow Charbagh (9)X  00:50+2001:05+2115m331276.640123mNRCharbagh, Uttar Pradesh
46BBKBarabanki Junction (4)  01:48+2501:50+262m--31305.171122mNRPin-225001, Uttar Pradesh
47DYDDaryabad  02:22+3102:24+322m--31343.245116mNRFaizabad Rd, Uttar Pradesh
48RDLRudauli (2)  02:55+2602:57+272m--31366.334112mNRRudauli, Uttar Pradesh
49FDFaizabad Junction (5)  04:05+1804:10+275m--31404.427104mNRFaizabad, Uttar Pradesh
50AYAyodhya Junction (3)  04:25+3104:27+322m--31411.17098mNRAyodhya, Uttar Pradesh
51GGJGoshainGanj (3)X  04:54+3604:56+362m--31442.84498mNRGoshainganj, Uttar Pradesh
52ABPAkbarpur (2)  05:26+3105:28+332m--31465.06492mNRAkbarpur, Uttar Pradesh
53MLPRMalipur (2)  05:46+3505:48+352m--31484.13692mNRMalipur, Uttar Pradesh
54SHGShahganj Junction (4)06:30+2207:10+540m--31509.16190mNRShahganj, Uttar Pradesh
55KRNDKhorason Road (2)  07:31+1607:33+162m--31530.34885mNERUttar Pradesh 276304 ?, Uttar Pradesh
56SMZSarai Mir (2)  07:44+1607:46+172m--31539.24687mNERTowa Ahirana, Uttar Pradesh
57AMHAzamgarh (2)  08:20+1408:25+155m131565.03081mNERAzamgarh, Uttar Pradesh
58MMAMuhammadabad (2)  09:08+509:10+82m--31586.62980mNERMuhammadabad Marg, Uttar Pradesh
59MAUMau Junction (4)X  09:55+810:10+715m--31608.33975mNERMau., Uttar Pradesh
60IAAIndara Junction (3)  10:22+610:24+72m--31616.25974mNERMau, Uttar Pradesh
61RSRRasra (2)X  10:53+1510:55+192m--31644.53970mNERRasra, Uttar Pradesh
62BUIBallia (3)  11:45+1711:50+205m--31677.27362mNERBallia, Uttar Pradesh
63SIPSuraimanpur  12:20+2612:22+272m--31713.63060mNERBallia, Uttar Pradesh
64CPRChhapra Junction (6)X  13:20+1213:40+920m--31742.74358mNERDistt: Saran, Bihar
65SEESonpur Junction (4)X  14:55+2715:04+419m--31796.82556mECRSaran, Bihar
66HJPHajipur Junction (3)  15:17+4015:19+482m--31802.36155mECR06224-272230, Bihar
67MFPMuzaffarpur Junction (6)X  16:12+1:2216:22+1:2410m131856.14657mECRMuzaffarpur, Bihar
68SPJSamastipur Junction (9)XO17:30+1:2517:58+1:2728m--31908.23255mECRSamastipur, Bihar
69LSILaheria Sarai (1)  18:58+1:1819:00+1:192m131940.62052mECRDarbhanga, Bihar
70DBGDarbhanga Junction (5)  19:15+1:16-131945.6-54mECRDarbhanga, Bihar
Scroll to Top
Scroll to Bottom